^^
Meteo Knjazevac Station Historical Data
Daily Summary for September 20, 2022 Units:  Metric    English   Both
Daily Weekly Monthly Yearly Custom
  High: Low: Average:
Temperature: 18.7 °C 6.8 °C 11.9 °C
Dew Point: 11.9 °C 6.6 °C 8.7 °C
Humidity: 99% 55% 83%
Wind Speed: 22.2km/h 0km/h 9km/h
Wind Gust: 27.4km/h - -
Wind- - SSW
Pressure: 1020.2 hPa 1018.2 hPa -
Precipitation: 0 mm    
Historical Graphs
 
 
Tabular Data for September 20, 2022
Time Temperature Dew Point Pressure Wind Wind Speed Wind Gust Humidity Rainfall Rate (Hourly) solar Conditions
00:04 9.4 °C 9.3 °C 1019.9 hPa ENE 5.8 km/h 9.7 km/h 99% 0 mm 0 W/m2
00:09 9.3 °C 9.2 °C 1019.9 hPa ENE 1.4 km/h 8 km/h 99% 0 mm 0 W/m2
00:14 9.2 °C 9.1 °C 1019.9 hPa NNE 4 km/h 4 km/h 99% 0 mm 0 W/m2
00:19 9.2 °C 9.1 °C 1019.9 hPa NE 4 km/h 6.4 km/h 99% 0 mm 0 W/m2
00:24 9.2 °C 9.1 °C 1019.5 hPa East 5 km/h 3.5 km/h 99% 0 mm 0 W/m2
00:29 9.2 °C 9.1 °C 1019.5 hPa ESE 3.5 km/h 6.4 km/h 99% 0 mm 0 W/m2
00:32 9.2 °C 9 °C 1019.9 hPa Calm     99% 0 mm 0 W/m2
00:39 9.1 °C 8.9 °C 1019.5 hPa WSW 2.7 km/h 2.1 km/h 99% 0 mm 0 W/m2
00:44 8.9 °C 8.8 °C 1019.5 hPa West 5 km/h 4.8 km/h 99% 0 mm 0 W/m2
00:48 8.8 °C 8.7 °C 1019.5 hPa WSW 2.4 km/h 4.8 km/h 99% 0 mm 0 W/m2
00:54 8.8 °C 8.6 °C 1019.5 hPa West 4.7 km/h 3.5 km/h 99% 0 mm 0 W/m2
00:58 8.7 °C 8.6 °C 1019.9 hPa NNE 6.3 km/h 6.4 km/h 99% 0 mm 0 W/m2
01:04 8.7 °C 8.5 °C 1019.9 hPa NE 3.5 km/h 8 km/h 99% 0 mm 0 W/m2
01:08 8.6 °C 8.4 °C 1019.9 hPa NE 0.6 km/h 3.2 km/h 99% 0 mm 0 W/m2
01:14 8.4 °C 8.3 °C 1019.9 hPa North 2.7 km/h 2.6 km/h 99% 0 mm 0 W/m2
01:19 8.3 °C 8.2 °C 1019.9 hPa NNW 2.6 km/h 3.2 km/h 99% 0 mm 0 W/m2
01:24 8.2 °C 8.1 °C 1019.9 hPa NNW 2.6 km/h 3.2 km/h 99% 0 mm 0 W/m2
01:29 8.2 °C 8 °C 1019.9 hPa NNW 0.5 km/h 3.2 km/h 99% 0 mm 0 W/m2
01:34 8 °C 7.8 °C 1019.9 hPa Calm     99% 0 mm 0 W/m2
01:39 7.9 °C 7.8 °C 1019.9 hPa NNW 2.9 km/h 2.9 km/h 99% 0 mm 0 W/m2
01:44 7.8 °C 7.7 °C 1019.9 hPa North 1.9 km/h 3.2 km/h 99% 0 mm 0 W/m2
01:49 7.8 °C 7.6 °C 1019.9 hPa ESE 0.2 km/h 3.2 km/h 99% 0 mm 0 W/m2
01:54 7.7 °C 7.6 °C 1019.9 hPa ESE 3.9 km/h 5 km/h 99% 0 mm 0 W/m2
01:59 7.8 °C 7.7 °C 1019.9 hPa NE 6.8 km/h 6.4 km/h 99% 0 mm 0 W/m2
02:04 7.8 °C 7.7 °C 1019.9 hPa NNE 5 km/h 8 km/h 99% 0 mm 0 W/m2
02:09 7.7 °C 7.6 °C 1019.9 hPa NNE 5.1 km/h 4.8 km/h 99% 0 mm 0 W/m2
02:14 7.6 °C 7.4 °C 1019.9 hPa NW 2.9 km/h 6.4 km/h 99% 0 mm 0 W/m2
02:19 7.5 °C 7.3 °C 1019.9 hPa West 4.3 km/h 4.8 km/h 99% 0 mm 0 W/m2
02:24 7.7 °C 7.5 °C 1019.9 hPa ESE 6.8 km/h 5 km/h 99% 0 mm 0 W/m2
02:29 7.7 °C 7.6 °C 1019.9 hPa SE 8.4 km/h 8 km/h 99% 0 mm 0 W/m2
02:34 7.8 °C 7.6 °C 1019.9 hPa SSE 5 km/h 4.3 km/h 99% 0 mm 0 W/m2
02:39 7.7 °C 7.5 °C 1019.9 hPa WSW 5 km/h 3.5 km/h 99% 0 mm 0 W/m2
02:44 7.5 °C 7.3 °C 1019.9 hPa WSW 2.9 km/h 4.8 km/h 99% 0 mm 0 W/m2
02:49 7.5 °C 7.3 °C 1019.9 hPa SSW 6.1 km/h 5.5 km/h 99% 0 mm 0 W/m2
02:54 7.6 °C 7.4 °C 1019.9 hPa SSE 5.6 km/h 8 km/h 99% 0 mm 0 W/m2
02:58 7.7 °C 7.5 °C 1019.9 hPa SE 6.8 km/h 4.7 km/h 99% 0 mm 0 W/m2
03:04 7.7 °C 7.6 °C 1019.9 hPa East 4.2 km/h 8 km/h 99% 0 mm 0 W/m2
03:09 7.7 °C 7.5 °C 1019.9 hPa NNE 3.4 km/h 4.8 km/h 99% 0 mm 0 W/m2
03:14 7.6 °C 7.4 °C 1019.9 hPa Calm     99% 0 mm 0 W/m2
03:19 7.6 °C 7.4 °C 1019.9 hPa NNE 1.1 km/h 1.1 km/h 99% 0 mm 0 W/m2
03:24 7.5 °C 7.3 °C 1019.9 hPa North 2.1 km/h 3.2 km/h 99% 0 mm 0 W/m2
03:29 7.4 °C 7.3 °C 1019.9 hPa NW 2.7 km/h 3.2 km/h 99% 0 mm 0 W/m2
03:34 7.4 °C 7.3 °C 1019.9 hPa WNW 2.6 km/h 3.2 km/h 99% 0 mm 0 W/m2
03:39 7.3 °C 7.2 °C 1019.9 hPa WSW 7.1 km/h 8 km/h 99% 0 mm 0 W/m2
03:44 7.4 °C 7.3 °C 1019.9 hPa SSW 6.3 km/h 4.3 km/h 99% 0 mm 0 W/m2
03:49 7.4 °C 7.3 °C 1019.9 hPa SSW 4.7 km/h 8 km/h 99% 0 mm 0 W/m2
03:54 7.3 °C 7.2 °C 1019.9 hPa SW 4.8 km/h 4 km/h 99% 0 mm 0 W/m2
03:59 7.3 °C 7.2 °C 1019.9 hPa WSW 4 km/h 6.4 km/h 99% 0 mm 0 W/m2
04:04 7.2 °C 7.1 °C 1019.9 hPa WSW 3.2 km/h 4.8 km/h 99% 0 mm 0 W/m2
04:09 7.2 °C 7.1 °C 1019.9 hPa West 3.7 km/h 2.6 km/h 99% 0 mm 0 W/m2
04:13 7.2 °C 7.1 °C 1019.9 hPa West 3.7 km/h 3.2 km/h 99% 0 mm 0 W/m2
04:19 7.1 °C 6.9 °C 1019.9 hPa WSW 4.8 km/h 4.8 km/h 99% 0 mm 0 W/m2
04:24 7 °C 6.8 °C 1019.9 hPa WSW 6.6 km/h 5 km/h 99% 0 mm 0 W/m2
04:29 7.1 °C 6.9 °C 1019.9 hPa WSW 5.6 km/h 8 km/h 99% 0 mm 0 W/m2
04:34 7.2 °C 7.1 °C 1019.9 hPa SW 5.5 km/h 6.4 km/h 99% 0 mm 0 W/m2
04:39 7.3 °C 7.2 °C 1019.9 hPa SSW 6 km/h 8 km/h 99% 0 mm 0 W/m2
04:44 7.3 °C 7.2 °C 1019.9 hPa SW 5.1 km/h 8 km/h 99% 0 mm 0 W/m2
04:49 7.3 °C 7.1 °C 1019.9 hPa SW 5.3 km/h 6.4 km/h 99% 0 mm 0 W/m2
04:54 7.2 °C 7.1 °C 1019.9 hPa SW 5.8 km/h 8 km/h 99% 0 mm 0 W/m2
04:59 7.4 °C 7.3 °C 1019.9 hPa SSW 6.8 km/h 4.8 km/h 99% 0 mm 0 W/m2
05:03 7.5 °C 7.3 °C 1019.9 hPa SSW 6.1 km/h 8 km/h 99% 0 mm 0 W/m2
05:08 7.4 °C 7.3 °C 1019.9 hPa SSW 5.5 km/h 8 km/h 99% 0 mm 0 W/m2
05:14 7.3 °C 7.2 °C 1019.9 hPa SW 4.8 km/h 4.8 km/h 99% 0 mm 0 W/m2
05:19 7.2 °C 7.1 °C 1019.9 hPa WSW 6.9 km/h 8 km/h 99% 0 mm 0 W/m2
05:24 7.1 °C 6.9 °C 1019.9 hPa WSW 6.8 km/h 8 km/h 99% 0 mm 0 W/m2
05:29 7 °C 6.8 °C 1019.9 hPa WSW 7.1 km/h 9.7 km/h 99% 0 mm 0 W/m2
05:34 7.1 °C 6.9 °C 1019.9 hPa SW 5.6 km/h 4 km/h 99% 0 mm 0 W/m2
05:39 7.1 °C 6.9 °C 1019.9 hPa SW 5.6 km/h 6.4 km/h 99% 0 mm 0 W/m2
05:44 7.1 °C 6.9 °C 1019.9 hPa SW 6.6 km/h 8 km/h 99% 0 mm 0 W/m2
05:49 7.1 °C 6.9 °C 1019.9 hPa SW 6.1 km/h 8 km/h 99% 0 mm 0 W/m2
05:54 7 °C 6.8 °C 1019.9 hPa WSW 7.2 km/h 8 km/h 99% 0 mm 0 W/m2
05:59 7 °C 6.8 °C 1019.9 hPa SW 5.3 km/h 8 km/h 99% 0 mm 0 W/m2
06:04 7 °C 6.8 °C 1019.9 hPa WSW 4.8 km/h 6.4 km/h 99% 0 mm 0 W/m2
06:09 7 °C 6.8 °C 1019.9 hPa WSW 5.1 km/h 8 km/h 99% 0 mm 1 W/m2
06:14 7 °C 6.8 °C 1019.9 hPa WSW 2.9 km/h 2.6 km/h 99% 0 mm 2 W/m2
06:19 7 °C 6.8 °C 1019.9 hPa WNW 2.9 km/h 3.2 km/h 99% 0 mm 3 W/m2
06:24 7 °C 6.8 °C 1019.9 hPa WNW 4.5 km/h 4.3 km/h 99% 0 mm 5 W/m2
06:29 6.9 °C 6.8 °C 1019.9 hPa West 3.9 km/h 8 km/h 99% 0 mm 7 W/m2
06:34 6.8 °C 6.7 °C 1019.9 hPa West 6.4 km/h 4 km/h 99% 0 mm 9 W/m2
06:39 6.8 °C 6.6 °C 1019.9 hPa West 4.5 km/h 2.6 km/h 99% 0 mm 11 W/m2
06:44 6.8 °C 6.6 °C 1020.2 hPa WNW 6.1 km/h 8.7 km/h 99% 0 mm 13 W/m2
06:49 6.8 °C 6.8 °C 1020.2 hPa NNE 7.7 km/h 11.3 km/h 99% 0 mm 19 W/m2
06:54 6.9 °C 6.8 °C 1020.2 hPa NE 3.4 km/h 8 km/h 99% 0 mm 31 W/m2
06:59 6.9 °C 6.8 °C 1020.2 hPa NE 3.5 km/h 4.8 km/h 99% 0 mm 31 W/m2
07:04 7.2 °C 7 °C 1020.2 hPa SE 9.2 km/h 8.2 km/h 99% 0 mm 34 W/m2
07:09 7.3 °C 7.2 °C 1020.2 hPa South 4.3 km/h 1.8 km/h 99% 0 mm 39 W/m2
07:14 7.3 °C 7.2 °C 1020.2 hPa SW 5 km/h 6.4 km/h 99% 0 mm 44 W/m2
07:19 7.4 °C 7.3 °C 1020.2 hPa ENE 7.1 km/h 8 km/h 99% 0 mm 44 W/m2
07:24 7.7 °C 7.6 °C 1020.2 hPa ESE 9.3 km/h 8 km/h 99% 0 mm 44 W/m2
07:29 8 °C 7.8 °C 1020.2 hPa SE 9.2 km/h 11.3 km/h 99% 0 mm 54 W/m2
07:34 8.1 °C 7.9 °C 1020.2 hPa SE 4.3 km/h 9.7 km/h 99% 0 mm 60 W/m2
07:39 8.1 °C 7.9 °C 1020.2 hPa SE 2.4 km/h 4.8 km/h 99% 0 mm 57 W/m2
07:43 8.2 °C 8 °C 1020.2 hPa ESE 3.1 km/h 3.2 km/h 99% 0 mm 65 W/m2
07:49 8.2 °C 8.1 °C 1020.2 hPa NE 4.5 km/h 3.2 km/h 99% 0 mm 66 W/m2
07:54 8.3 °C 8.2 °C 1020.2 hPa East 4.3 km/h 3.5 km/h 99% 0 mm 84 W/m2
07:59 8.5 °C 8.3 °C 1020.2 hPa East 4.7 km/h 4.8 km/h 99% 0 mm 84 W/m2
08:04 8.6 °C 8.4 °C 1020.2 hPa East 4.7 km/h 6.4 km/h 99% 0 mm 71 W/m2
08:09 8.7 °C 8.5 °C 1020.2 hPa ESE 5.1 km/h 4.8 km/h 99% 0 mm 67 W/m2
08:14 8.7 °C 8.6 °C 1020.2 hPa East 3.7 km/h 4.8 km/h 99% 0 mm 68 W/m2
08:19 8.8 °C 8.7 °C 1020.2 hPa ENE 3.7 km/h 4.8 km/h 99% 0 mm 97 W/m2
08:24 9.1 °C 8.9 °C 1020.2 hPa ENE 8.7 km/h 6.8 km/h 99% 0 mm 112 W/m2
08:29 9.2 °C 9.1 °C 1020.2 hPa ENE 2.7 km/h 11.3 km/h 99% 0 mm 111 W/m2
08:34 9.3 °C 9.2 °C 1020.2 hPa NE 3.7 km/h 3.2 km/h 99% 0 mm 90 W/m2
08:39 9.4 °C 9.3 °C 1020.2 hPa NNE 1.9 km/h 2.6 km/h 99% 0 mm 104 W/m2
08:44 9.5 °C 9.3 °C 1020.2 hPa NE 4 km/h 4.7 km/h 98.8% 0 mm 440 W/m2
08:49 9.9 °C 9.6 °C 1020.2 hPa East 4.7 km/h 6.4 km/h 97.6% 0 mm 498 W/m2
08:54 10.7 °C 10.3 °C 1020.2 hPa SSE 3.1 km/h 4.8 km/h 98% 0 mm 370 W/m2
08:59 10.7 °C 9.9 °C 1020.2 hPa SSW 4.7 km/h 4 km/h 94.8% 0 mm 147 W/m2
09:04 10.6 °C 9.6 °C 1020.2 hPa SSE 5.6 km/h 8 km/h 93.3% 0 mm 137 W/m2
09:08 10.6 °C 9.6 °C 1020.2 hPa SSE 4.8 km/h 6.4 km/h 93.3% 0 mm 134 W/m2
09:14 10.6 °C 9.7 °C 1020.2 hPa South 5 km/h 6.4 km/h 94.4% 0 mm 123 W/m2
09:19 10.7 °C 9.9 °C 1020.2 hPa SSW 5.3 km/h 6.4 km/h 95% 0 mm 493 W/m2
09:24 11.2 °C 10.3 °C 1020.2 hPa SW 6.1 km/h 6.4 km/h 94.4% 0 mm 508 W/m2
09:29 11.9 °C 10.7 °C 1020.2 hPa SSW 6.1 km/h 8 km/h 92.5% 0 mm 510 W/m2
09:34 12.4 °C 10.8 °C 1020.2 hPa SSE 7.7 km/h 8 km/h 89.6% 0 mm 524 W/m2
09:39 12.8 °C 10.7 °C 1020.2 hPa SSE 6.8 km/h 9.7 km/h 87.5% 0 mm 523 W/m2
09:44 12.9 °C 10.7 °C 1020.2 hPa SE 8.2 km/h 8 km/h 86.1% 0 mm 501 W/m2
09:49 13.3 °C 10.9 °C 1020.2 hPa SE 8.7 km/h 11.3 km/h 85.5% 0 mm 361 W/m2
09:54 13.8 °C 11.1 °C 1020.2 hPa SSE 8.4 km/h 11.3 km/h 83.6% 0 mm 137 W/m2
09:55 13.8 °C 10.9 °C 1020.2 hPa South 7.1 km/h 9.7 km/h 82.5% 0 mm 153 W/m2
10:04 14.6 °C 11.9 °C 1020.2 hPa SSW 7.6 km/h 9.7 km/h 83.9% 0 mm 544 W/m2
10:09 15 °C 11.9 °C 1019.9 hPa SSW 8.7 km/h 9.7 km/h 81.9% 0 mm 709 W/m2
10:14 14.9 °C 11.3 °C 1019.9 hPa SSW 13.4 km/h 14.5 km/h 78.7% 0 mm 602 W/m2
10:19 14.7 °C 11.1 °C 1019.9 hPa SSW 9.3 km/h 14.5 km/h 79% 0 mm 700 W/m2
10:24 14.9 °C 11.3 °C 1019.9 hPa SSW 10.8 km/h 11.3 km/h 78.8% 0 mm 714 W/m2
10:29 15.2 °C 11.5 °C 1019.9 hPa SSW 9.7 km/h 12.9 km/h 78.5% 0 mm 631 W/m2
10:34 15 °C 10.8 °C 1019.9 hPa South 11.1 km/h 11.3 km/h 75.9% 0 mm 306 W/m2
10:39 14.9 °C 11.1 °C 1019.9 hPa South 9.5 km/h 12.9 km/h 77.6% 0 mm 697 W/m2
10:44 15.2 °C 10.9 °C 1019.9 hPa South 9.3 km/h 11.3 km/h 75.9% 0 mm 508 W/m2
10:49 15.1 °C 10.7 °C 1019.9 hPa SSW 8.9 km/h 11.3 km/h 75% 0 mm 254 W/m2
10:54 14.9 °C 10.8 °C 1019.9 hPa South 7.1 km/h 11.3 km/h 76% 0 mm 260 W/m2
10:59 14.9 °C 10.6 °C 1019.9 hPa SW 9.2 km/h 9.7 km/h 75.4% 0 mm 260 W/m2
11:04 15 °C 10.2 °C 1019.9 hPa WSW 9.3 km/h 11.3 km/h 73% 0 mm 260 W/m2
11:09 15 °C 10.1 °C 1019.9 hPa WSW 14.3 km/h 12.9 km/h 72.6% 0 mm 207 W/m2
11:12 14.9 °C 9.9 °C 1019.9 hPa WSW 14.5 km/h 16.1 km/h 72% 0 mm 206 W/m2
11:19 14.9 °C 9.9 °C 1019.9 hPa WSW 13 km/h 16.1 km/h 72% 0 mm 246 W/m2
11:24 14.9 °C 9.9 °C 1019.5 hPa West 12.2 km/h 14.5 km/h 72% 0 mm 246 W/m2
11:29 14.8 °C 9.8 °C 1019.9 hPa West 16.7 km/h 17.7 km/h 72% 0 mm 148 W/m2
11:34 14.8 °C 9.9 °C 1019.5 hPa West 12.4 km/h 19.3 km/h 72.4% 0 mm 244 W/m2
11:39 14.8 °C 9.9 °C 1019.5 hPa WNW 14 km/h 14.5 km/h 72.4% 0 mm 716 W/m2
11:44 15 °C 9.8 °C 1019.5 hPa WNW 18.3 km/h 16.1 km/h 71.3% 0 mm 243 W/m2
11:49 14.9 °C 9.8 °C 1019.5 hPa West 14.6 km/h 20.9 km/h 71.2% 0 mm 169 W/m2
11:54 14.8 °C 10 °C 1019.5 hPa West 10.9 km/h 19.3 km/h 72.7% 0 mm 171 W/m2
11:59 14.8 °C 9.9 °C 1019.5 hPa WSW 14.3 km/h 14.5 km/h 72.7% 0 mm 212 W/m2
12:04 14.8 °C 9.7 °C 1019.5 hPa West 9.7 km/h 14.5 km/h 71.6% 0 mm 236 W/m2
12:09 14.8 °C 9.4 °C 1019.5 hPa West 11.7 km/h 11.3 km/h 70% 0 mm 218 W/m2
12:14 15 °C 9.6 °C 1019.5 hPa West 17.4 km/h 16.1 km/h 70.1% 0 mm 903 W/m2
12:19 15.7 °C 9.9 °C 1019.5 hPa West 20.8 km/h 13.7 km/h 68.4% 0 mm 928 W/m2
12:24 16 °C 9.9 °C 1019.5 hPa West 15.4 km/h 20.9 km/h 66.9% 0 mm 634 W/m2
12:29 16.1 °C 9.5 °C 1019.5 hPa West 18.2 km/h 10.8 km/h 65% 0 mm 1008 W/m2
12:34 16.4 °C 10.2 °C 1019.5 hPa WNW 11.7 km/h 19.3 km/h 66.7% 0 mm 985 W/m2
12:39 16.8 °C 10.1 °C 1019.5 hPa West 18.3 km/h 14.8 km/h 64.5% 0 mm 758 W/m2
12:44 16.4 °C 9.6 °C 1019.5 hPa West 22 km/h 25.7 km/h 64.1% 0 mm 110 W/m2
12:49 15.8 °C 9.6 °C 1019.5 hPa West 18.2 km/h 25.7 km/h 66.1% 0 mm 142 W/m2
12:54 15.6 °C 9.4 °C 1019.5 hPa West 15.9 km/h 20.9 km/h 67% 0 mm 164 W/m2
12:59 15.4 °C 9.2 °C 1019.5 hPa West 17.4 km/h 19.3 km/h 66.5% 0 mm 189 W/m2
13:04 15.3 °C 9.3 °C 1019.5 hPa West 11.4 km/h 19.3 km/h 67.4% 0 mm 256 W/m2
13:09 15.3 °C 9.4 °C 1019.5 hPa West 11.3 km/h 11.3 km/h 67.8% 0 mm 943 W/m2
13:14 15.8 °C 9.8 °C 1019.2 hPa West 13 km/h 12.9 km/h 67.6% 0 mm 571 W/m2
13:19 15.9 °C 9.4 °C 1019.2 hPa West 14.5 km/h 16.1 km/h 65.4% 0 mm 172 W/m2
13:24 15.8 °C 9.4 °C 1019.2 hPa West 13.4 km/h 14.5 km/h 66.2% 0 mm 227 W/m2
13:29 15.7 °C 9.6 °C 1019.2 hPa WNW 13.4 km/h 14.5 km/h 67% 0 mm 675 W/m2
13:34 15.8 °C 9.7 °C 1019.2 hPa West 12.1 km/h 14.5 km/h 67% 0 mm 560 W/m2
13:39 16.1 °C 9.8 °C 1019.2 hPa West 15.6 km/h 12.9 km/h 66.1% 0 mm 902 W/m2
13:44 16.6 °C 9.8 °C 1019.2 hPa West 15.8 km/h 19.3 km/h 64.3% 0 mm 855 W/m2
13:48 17.1 °C 10 °C 1019.2 hPa West 18.7 km/h 20.9 km/h 63% 0 mm 848 W/m2
13:54 17.4 °C 10 °C 1019.2 hPa West 17.7 km/h 20.9 km/h 61.6% 0 mm 812 W/m2
13:59 17.7 °C 9.9 °C 1018.8 hPa West 21.1 km/h 20.9 km/h 60.4% 0 mm 781 W/m2
14:04 17.8 °C 9.7 °C 1018.8 hPa West 22.2 km/h 25.7 km/h 58.9% 0 mm 769 W/m2
14:09 17.9 °C 9.7 °C 1018.8 hPa West 18.3 km/h 24.1 km/h 59% 0 mm 777 W/m2
14:14 18 °C 9.8 °C 1018.8 hPa WSW 16.1 km/h 20.9 km/h 58.9% 0 mm 798 W/m2
14:19 18.2 °C 9.9 °C 1018.8 hPa WSW 16.7 km/h 12.9 km/h 58.3% 0 mm 816 W/m2
14:24 18.5 °C 9.8 °C 1018.8 hPa WSW 18.7 km/h 19.3 km/h 56.8% 0 mm 782 W/m2
14:29 18.7 °C 9.7 °C 1018.8 hPa WSW 15.9 km/h 20.9 km/h 56.1% 0 mm 767 W/m2
14:34 18.7 °C 9.7 °C 1018.8 hPa WSW 15.3 km/h 11.1 km/h 55.9% 0 mm 636 W/m2
14:39 18.5 °C 9.9 °C 1018.8 hPa West 12.9 km/h 16.1 km/h 57.2% 0 mm 750 W/m2
14:44 18.2 °C 9.5 °C 1018.8 hPa WNW 14.6 km/h 19.3 km/h 57% 0 mm 519 W/m2
14:49 17.9 °C 9.2 °C 1018.5 hPa West 12.4 km/h 19.3 km/h 57% 0 mm 175 W/m2
14:54 17.6 °C 9 °C 1018.5 hPa WSW 13.5 km/h 12.9 km/h 57.3% 0 mm 190 W/m2
14:59 17.3 °C 9.1 °C 1018.5 hPa West 16.1 km/h 20.9 km/h 58.3% 0 mm 528 W/m2
15:04 17.5 °C 9.3 °C 1018.5 hPa West 13.2 km/h 19.3 km/h 58.5% 0 mm 685 W/m2
15:09 17.6 °C 9 °C 1018.5 hPa WSW 13.5 km/h 14.5 km/h 57.4% 0 mm 155 W/m2
15:14 17.3 °C 8.9 °C 1018.5 hPa WSW 12.4 km/h 16.1 km/h 57.9% 0 mm 171 W/m2
15:19 17.2 °C 8.9 °C 1018.5 hPa WSW 15.9 km/h 14.5 km/h 58.3% 0 mm 211 W/m2
15:24 17.2 °C 9.1 °C 1018.5 hPa WSW 17.4 km/h 19.3 km/h 58.7% 0 mm 436 W/m2
15:29 17.3 °C 8.9 °C 1018.5 hPa WSW 20.3 km/h 22.5 km/h 58% 0 mm 594 W/m2
15:34 17.7 °C 8.9 °C 1018.2 hPa WSW 21.7 km/h 27.4 km/h 56.7% 0 mm 579 W/m2
15:39 17.9 °C 8.9 °C 1018.2 hPa WSW 18.3 km/h 27.4 km/h 55.9% 0 mm 554 W/m2
15:44 18.1 °C 9.3 °C 1018.2 hPa WSW 17.9 km/h 20.9 km/h 56.6% 0 mm 494 W/m2
15:49 18.1 °C 9.3 °C 1018.2 hPa WSW 13.2 km/h 20.9 km/h 56.4% 0 mm 446 W/m2
15:54 18.2 °C 9.3 °C 1018.2 hPa WSW 18 km/h 19.3 km/h 56% 0 mm 430 W/m2
15:59 18.3 °C 9.2 °C 1018.2 hPa West 17.1 km/h 20.9 km/h 55.5% 0 mm 404 W/m2
16:04 18.3 °C 9.4 °C 1018.2 hPa West 16.7 km/h 19.3 km/h 56.1% 0 mm 386 W/m2
16:09 18.3 °C 9.7 °C 1018.2 hPa WSW 15.1 km/h 19.3 km/h 57.3% 0 mm 395 W/m2
16:14 18.4 °C 9.7 °C 1018.2 hPa West 15 km/h 19.3 km/h 56.8% 0 mm 395 W/m2
16:19 18.2 °C 9.5 °C 1018.2 hPa West 14.6 km/h 19.3 km/h 56.9% 0 mm 346 W/m2
16:24 18.1 °C 9 °C 1018.2 hPa West 19.8 km/h 15.4 km/h 55.5% 0 mm 346 W/m2
16:29 18 °C 9.3 °C 1018.2 hPa WSW 16.4 km/h 22.5 km/h 56.9% 0 mm 332 W/m2
16:34 18 °C 9.4 °C 1018.2 hPa WSW 15.6 km/h 19.3 km/h 57.5% 0 mm 295 W/m2
16:39 17.9 °C 9.4 °C 1018.2 hPa West 17.9 km/h 20.9 km/h 57.3% 0 mm 282 W/m2
16:44 17.8 °C 9.3 °C 1018.2 hPa West 15.6 km/h 19.3 km/h 57.7% 0 mm 272 W/m2
16:49 17.7 °C 9.1 °C 1018.2 hPa West 14.6 km/h 16.1 km/h 57.1% 0 mm 260 W/m2
16:54 17.6 °C 8.4 °C 1018.2 hPa WSW 16.3 km/h 11.6 km/h 55% 0 mm 250 W/m2
16:59 17.5 °C 8.6 °C 1018.2 hPa WSW 16.9 km/h 19.3 km/h 55.8% 0 mm 241 W/m2
17:03 17.4 °C 8.8 °C 1018.2 hPa West 17.1 km/h 19.3 km/h 57.1% 0 mm 215 W/m2
17:08 17.3 °C 9 °C 1018.2 hPa West 15.1 km/h 19.3 km/h 58% 0 mm 193 W/m2
17:14 17.2 °C 9.1 °C 1018.2 hPa West 13.7 km/h 16.1 km/h 58.9% 0 mm 171 W/m2
17:19 17 °C 8.8 °C 1018.2 hPa West 11.1 km/h 14.5 km/h 58.4% 0 mm 59 W/m2
17:24 16.7 °C 8.8 °C 1018.2 hPa West 8.9 km/h 5.8 km/h 59.7% 0 mm 87 W/m2
17:29 16.6 °C 8.8 °C 1018.2 hPa WSW 4.7 km/h 9.7 km/h 60.2% 0 mm 87 W/m2
17:34 16.3 °C 9.1 °C 1018.2 hPa WSW 7.9 km/h 5.8 km/h 61.9% 0 mm 102 W/m2
17:39 16.2 °C 9 °C 1018.2 hPa WSW 9.2 km/h 12.9 km/h 62.6% 0 mm 100 W/m2
17:44 16.1 °C 9.1 °C 1018.2 hPa West 8.5 km/h 12.9 km/h 63% 0 mm 89 W/m2
17:49 16.1 °C 9 °C 1018.2 hPa West 12.2 km/h 11.3 km/h 62.6% 0 mm 79 W/m2
17:54 16.1 °C 8.9 °C 1018.2 hPa WNW 14.3 km/h 14.5 km/h 62.3% 0 mm 73 W/m2
Knjazevac, Serbia
Compliments of Weather Underground - 2 mb